sensor_id;sensor_type;location;lat;lon;timestamp;P1;P2;P0
70241;PMS5003;57631;52.218;0.108;2022-12-17T00:00:51;100;79;
70241;PMS5003;57631;52.218;0.108;2022-12-17T00:03:17;106;85;
70241;PMS5003;57631;52.218;0.108;2022-12-17T00:05:42;100;80;
70241;PMS5003;57631;52.218;0.108;2022-12-17T00:08:08;103;86;
70241;PMS5003;57631;52.218;0.108;2022-12-17T00:10:33;108;85;
70241;PMS5003;57631;52.218;0.108;2022-12-17T00:12:58;104;87;
70241;PMS5003;57631;52.218;0.108;2022-12-17T00:15:24;98;83;
70241;PMS5003;57631;52.218;0.108;2022-12-17T00:17:49;87;82;
70241;PMS5003;57631;52.218;0.108;2022-12-17T00:20:14;97;74;
70241;PMS5003;57631;52.218;0.108;2022-12-17T00:22:40;104;85;
70241;PMS5003;57631;52.218;0.108;2022-12-17T00:25:06;93;75;
70241;PMS5003;57631;52.218;0.108;2022-12-17T00:27:31;91;77;
70241;PMS5003;57631;52.218;0.108;2022-12-17T00:29:56;92;74;
70241;PMS5003;57631;52.218;0.108;2022-12-17T00:32:22;92;75;
70241;PMS5003;57631;52.218;0.108;2022-12-17T00:34:47;84;70;
70241;PMS5003;57631;52.218;0.108;2022-12-17T00:37:13;89;74;
70241;PMS5003;57631;52.218;0.108;2022-12-17T00:39:38;91;70;
70241;PMS5003;57631;52.218;0.108;2022-12-17T00:42:03;85;76;
70241;PMS5003;57631;52.218;0.108;2022-12-17T00:44:28;77;65;
70241;PMS5003;57631;52.218;0.108;2022-12-17T00:46:54;94;69;
70241;PMS5003;57631;52.218;0.108;2022-12-17T00:49:19;88;69;
70241;PMS5003;57631;52.218;0.108;2022-12-17T00:51:44;90;65;
70241;PMS5003;57631;52.218;0.108;2022-12-17T00:54:10;91;71;
70241;PMS5003;57631;52.218;0.108;2022-12-17T00:56:35;88;75;
70241;PMS5003;57631;52.218;0.108;2022-12-17T00:59:00;90;76;
70241;PMS5003;57631;52.218;0.108;2022-12-17T01:01:26;83;68;
70241;PMS5003;57631;52.218;0.108;2022-12-17T01:03:52;78;68;
70241;PMS5003;57631;52.218;0.108;2022-12-17T01:06:17;78;70;
70241;PMS5003;57631;52.218;0.108;2022-12-17T01:08:43;85;70;
70241;PMS5003;57631;52.218;0.108;2022-12-17T01:11:08;79;66;
70241;PMS5003;57631;52.218;0.108;2022-12-17T01:13:34;83;72;
70241;PMS5003;57631;52.218;0.108;2022-12-17T01:16:02;90;72;
70241;PMS5003;57631;52.218;0.108;2022-12-17T01:18:25;88;75;
70241;PMS5003;57631;52.218;0.108;2022-12-17T01:20:54;93;72;
70241;PMS5003;57631;52.218;0.108;2022-12-17T01:23:16;98;77;
70241;PMS5003;57631;52.218;0.108;2022-12-17T01:25:42;84;78;
70241;PMS5003;57631;52.218;0.108;2022-12-17T01:28:07;97;78;
70241;PMS5003;57631;52.218;0.108;2022-12-17T01:30:34;87;74;
70241;PMS5003;57631;52.218;0.108;2022-12-17T01:33:00;85;80;
70241;PMS5003;57631;52.218;0.108;2022-12-17T01:35:24;91;74;
70241;PMS5003;57631;52.218;0.108;2022-12-17T01:37:49;90;77;
70241;PMS5003;57631;52.218;0.108;2022-12-17T01:40:15;94;74;
70241;PMS5003;57631;52.218;0.108;2022-12-17T01:42:45;100;80;
70241;PMS5003;57631;52.218;0.108;2022-12-17T01:45:08;84;65;
70241;PMS5003;57631;52.218;0.108;2022-12-17T01:47:32;100;81;
70241;PMS5003;57631;52.218;0.108;2022-12-17T01:49:57;105;87;
70241;PMS5003;57631;52.218;0.108;2022-12-17T01:52:22;105;82;
70241;PMS5003;57631;52.218;0.108;2022-12-17T01:54:48;116;92;
70241;PMS5003;57631;52.218;0.108;2022-12-17T01:57:13;106;81;
70241;PMS5003;57631;52.218;0.108;2022-12-17T01:59:40;102;85;
70241;PMS5003;57631;52.218;0.108;2022-12-17T02:02:04;98;78;
70241;PMS5003;57631;52.218;0.108;2022-12-17T02:04:30;96;82;
70241;PMS5003;57631;52.218;0.108;2022-12-17T02:07:00;100;87;
70241;PMS5003;57631;52.218;0.108;2022-12-17T02:09:22;102;86;
70241;PMS5003;57631;52.218;0.108;2022-12-17T02:11:48;91;78;
70241;PMS5003;57631;52.218;0.108;2022-12-17T02:14:13;91;77;
70241;PMS5003;57631;52.218;0.108;2022-12-17T02:16:39;81;73;
70241;PMS5003;57631;52.218;0.108;2022-12-17T02:19:04;103;84;
70241;PMS5003;57631;52.218;0.108;2022-12-17T02:21:28;107;85;
70241;PMS5003;57631;52.218;0.108;2022-12-17T02:23:55;98;86;
70241;PMS5003;57631;52.218;0.108;2022-12-17T02:28:45;93;79;
70241;PMS5003;57631;52.218;0.108;2022-12-17T02:31:10;103;79;
70241;PMS5003;57631;52.218;0.108;2022-12-17T02:33:35;101;85;
70241;PMS5003;57631;52.218;0.108;2022-12-17T02:36:01;92;78;
70241;PMS5003;57631;52.218;0.108;2022-12-17T02:38:26;99;83;
70241;PMS5003;57631;52.218;0.108;2022-12-17T02:40:51;86;78;
70241;PMS5003;57631;52.218;0.108;2022-12-17T02:43:16;100;85;
70241;PMS5003;57631;52.218;0.108;2022-12-17T02:45:41;87;74;
70241;PMS5003;57631;52.218;0.108;2022-12-17T02:48:07;109;78;
70241;PMS5003;57631;52.218;0.108;2022-12-17T02:50:32;94;81;
70241;PMS5003;57631;52.218;0.108;2022-12-17T02:52:59;100;81;
70241;PMS5003;57631;52.218;0.108;2022-12-17T02:55:24;77;69;
70241;PMS5003;57631;52.218;0.108;2022-12-17T02:57:50;84;71;
70241;PMS5003;57631;52.218;0.108;2022-12-17T03:00:15;86;63;
70241;PMS5003;57631;52.218;0.108;2022-12-17T03:02:41;82;64;
70241;PMS5003;57631;52.218;0.108;2022-12-17T03:05:06;84;70;
70241;PMS5003;57631;52.218;0.108;2022-12-17T03:07:31;83;70;
70241;PMS5003;57631;52.218;0.108;2022-12-17T03:09:56;71;65;
70241;PMS5003;57631;52.218;0.108;2022-12-17T03:12:22;75;62;
70241;PMS5003;57631;52.218;0.108;2022-12-17T03:14:47;79;69;
70241;PMS5003;57631;52.218;0.108;2022-12-17T03:17:13;79;68;
70241;PMS5003;57631;52.218;0.108;2022-12-17T03:19:38;73;60;
70241;PMS5003;57631;52.218;0.108;2022-12-17T03:22:04;78;70;
70241;PMS5003;57631;52.218;0.108;2022-12-17T03:24:29;89;70;
70241;PMS5003;57631;52.218;0.108;2022-12-17T03:26:55;71;60;
70241;PMS5003;57631;52.218;0.108;2022-12-17T03:29:20;78;66;
70241;PMS5003;57631;52.218;0.108;2022-12-17T03:31:45;81;64;
70241;PMS5003;57631;52.218;0.108;2022-12-17T03:34:11;69;59;
70241;PMS5003;57631;52.218;0.108;2022-12-17T03:36:37;74;56;
70241;PMS5003;57631;52.218;0.108;2022-12-17T03:39:02;82;65;
70241;PMS5003;57631;52.218;0.108;2022-12-17T03:41:27;71;60;
70241;PMS5003;57631;52.218;0.108;2022-12-17T03:43:53;83;67;
70241;PMS5003;57631;52.218;0.108;2022-12-17T03:46:18;78;59;
70241;PMS5003;57631;52.218;0.108;2022-12-17T03:48:43;76;63;
70241;PMS5003;57631;52.218;0.108;2022-12-17T03:51:08;76;65;
70241;PMS5003;57631;52.218;0.108;2022-12-17T03:53:34;86;71;
70241;PMS5003;57631;52.218;0.108;2022-12-17T03:56:00;72;65;
70241;PMS5003;57631;52.218;0.108;2022-12-17T03:58:25;73;65;
70241;PMS5003;57631;52.218;0.108;2022-12-17T04:00:50;91;69;
70241;PMS5003;57631;52.218;0.108;2022-12-17T04:03:16;76;65;
70241;PMS5003;57631;52.218;0.108;2022-12-17T04:05:42;74;65;
70241;PMS5003;57631;52.218;0.108;2022-12-17T04:08:07;78;62;
70241;PMS5003;57631;52.218;0.108;2022-12-17T04:10:33;88;68;
70241;PMS5003;57631;52.218;0.108;2022-12-17T04:12:58;82;65;
70241;PMS5003;57631;52.218;0.108;2022-12-17T04:15:23;71;63;
70241;PMS5003;57631;52.218;0.108;2022-12-17T04:17:49;82;67;
70241;PMS5003;57631;52.218;0.108;2022-12-17T04:20:14;80;61;
70241;PMS5003;57631;52.218;0.108;2022-12-17T04:22:39;78;64;
70241;PMS5003;57631;52.218;0.108;2022-12-17T04:25:05;70;64;
70241;PMS5003;57631;52.218;0.108;2022-12-17T04:27:30;69;54;
70241;PMS5003;57631;52.218;0.108;2022-12-17T04:29:55;68;58;
70241;PMS5003;57631;52.218;0.108;2022-12-17T04:32:20;62;53;
70241;PMS5003;57631;52.218;0.108;2022-12-17T04:34:46;61;51;
70241;PMS5003;57631;52.218;0.108;2022-12-17T04:37:12;61;58;
70241;PMS5003;57631;52.218;0.108;2022-12-17T04:39:36;72;57;
70241;PMS5003;57631;52.218;0.108;2022-12-17T04:42:02;69;54;
70241;PMS5003;57631;52.218;0.108;2022-12-17T04:44:27;59;54;
70241;PMS5003;57631;52.218;0.108;2022-12-17T04:46:53;62;53;
70241;PMS5003;57631;52.218;0.108;2022-12-17T04:49:18;54;49;
70241;PMS5003;57631;52.218;0.108;2022-12-17T04:51:44;64;58;
70241;PMS5003;57631;52.218;0.108;2022-12-17T04:54:10;62;53;
70241;PMS5003;57631;52.218;0.108;2022-12-17T04:56:35;62;48;
70241;PMS5003;57631;52.218;0.108;2022-12-17T04:59:00;55;50;
70241;PMS5003;57631;52.218;0.108;2022-12-17T05:01:25;52;48;
70241;PMS5003;57631;52.218;0.108;2022-12-17T05:03:51;57;46;
70241;PMS5003;57631;52.218;0.108;2022-12-17T05:06:16;53;48;
70241;PMS5003;57631;52.218;0.108;2022-12-17T05:08:42;48;44;
70241;PMS5003;57631;52.218;0.108;2022-12-17T05:11:07;59;49;
70241;PMS5003;57631;52.218;0.108;2022-12-17T05:13:33;58;50;
70241;PMS5003;57631;52.218;0.108;2022-12-17T05:15:58;56;51;
70241;PMS5003;57631;52.218;0.108;2022-12-17T05:18:24;49;43;
70241;PMS5003;57631;52.218;0.108;2022-12-17T05:20:50;59;48;
70241;PMS5003;57631;52.218;0.108;2022-12-17T05:23:15;73;59;
70241;PMS5003;57631;52.218;0.108;2022-12-17T05:25:40;61;51;
70241;PMS5003;57631;52.218;0.108;2022-12-17T05:28:05;61;50;
70241;PMS5003;57631;52.218;0.108;2022-12-17T05:30:31;60;48;
70241;PMS5003;57631;52.218;0.108;2022-12-17T05:32:58;63;53;
70241;PMS5003;57631;52.218;0.108;2022-12-17T05:35:23;50;42;
70241;PMS5003;57631;52.218;0.108;2022-12-17T05:37:49;53;51;
70241;PMS5003;57631;52.218;0.108;2022-12-17T05:40:14;60;56;
70241;PMS5003;57631;52.218;0.108;2022-12-17T05:42:39;68;57;
70241;PMS5003;57631;52.218;0.108;2022-12-17T05:45:05;67;52;
70241;PMS5003;57631;52.218;0.108;2022-12-17T05:47:30;60;51;
70241;PMS5003;57631;52.218;0.108;2022-12-17T05:49:55;58;47;
70241;PMS5003;57631;52.218;0.108;2022-12-17T05:52:20;62;47;
70241;PMS5003;57631;52.218;0.108;2022-12-17T05:54:46;66;54;
70241;PMS5003;57631;52.218;0.108;2022-12-17T05:57:11;56;48;
70241;PMS5003;57631;52.218;0.108;2022-12-17T05:59:37;59;52;
70241;PMS5003;57631;52.218;0.108;2022-12-17T06:02:02;64;50;
70241;PMS5003;57631;52.218;0.108;2022-12-17T06:04:28;59;48;
70241;PMS5003;57631;52.218;0.108;2022-12-17T06:06:54;55;46;
70241;PMS5003;57631;52.218;0.108;2022-12-17T06:09:20;56;49;
70241;PMS5003;57631;52.218;0.108;2022-12-17T06:11:45;72;49;
70241;PMS5003;57631;52.218;0.108;2022-12-17T06:14:10;54;43;
70241;PMS5003;57631;52.218;0.108;2022-12-17T06:16:35;66;46;
70241;PMS5003;57631;52.218;0.108;2022-12-17T06:19:01;48;41;
70241;PMS5003;57631;52.218;0.108;2022-12-17T06:21:26;58;45;
70241;PMS5003;57631;52.218;0.108;2022-12-17T06:23:51;53;47;
70241;PMS5003;57631;52.218;0.108;2022-12-17T06:26:17;59;47;
70241;PMS5003;57631;52.218;0.108;2022-12-17T06:28:42;57;45;
70241;PMS5003;57631;52.218;0.108;2022-12-17T06:31:08;53;43;
70241;PMS5003;57631;52.218;0.108;2022-12-17T06:33:34;48;44;
70241;PMS5003;57631;52.218;0.108;2022-12-17T06:35:59;63;46;
70241;PMS5003;57631;52.218;0.108;2022-12-17T06:38:25;50;44;
70241;PMS5003;57631;52.218;0.108;2022-12-17T06:40:50;54;42;
70241;PMS5003;57631;52.218;0.108;2022-12-17T06:43:16;45;40;
70241;PMS5003;57631;52.218;0.108;2022-12-17T06:45:41;54;43;
70241;PMS5003;57631;52.218;0.108;2022-12-17T06:48:07;48;42;
70241;PMS5003;57631;52.218;0.108;2022-12-17T06:50:32;56;40;
70241;PMS5003;57631;52.218;0.108;2022-12-17T06:52:58;57;47;
70241;PMS5003;57631;52.218;0.108;2022-12-17T06:55:23;47;39;
70241;PMS5003;57631;52.218;0.108;2022-12-17T07:00:14;55;49;
70241;PMS5003;57631;52.218;0.108;2022-12-17T07:02:39;65;50;
70241;PMS5003;57631;52.218;0.108;2022-12-17T07:05:05;52;48;
70241;PMS5003;57631;52.218;0.108;2022-12-17T07:07:31;48;43;
70241;PMS5003;57631;52.218;0.108;2022-12-17T07:09:57;55;49;
70241;PMS5003;57631;52.218;0.108;2022-12-17T07:12:22;52;47;
70241;PMS5003;57631;52.218;0.108;2022-12-17T07:14:47;56;46;
70241;PMS5003;57631;52.218;0.108;2022-12-17T07:17:13;68;55;
70241;PMS5003;57631;52.218;0.108;2022-12-17T07:19:39;64;46;
70241;PMS5003;57631;52.218;0.108;2022-12-17T07:22:04;55;41;
70241;PMS5003;57631;52.218;0.108;2022-12-17T07:24:29;64;56;
70241;PMS5003;57631;52.218;0.108;2022-12-17T07:26:55;59;51;
70241;PMS5003;57631;52.218;0.108;2022-12-17T07:29:21;69;54;
70241;PMS5003;57631;52.218;0.108;2022-12-17T07:31:46;70;57;
70241;PMS5003;57631;52.218;0.108;2022-12-17T07:34:12;71;58;
70241;PMS5003;57631;52.218;0.108;2022-12-17T07:36:37;59;45;
70241;PMS5003;57631;52.218;0.108;2022-12-17T07:39:03;59;47;
70241;PMS5003;57631;52.218;0.108;2022-12-17T07:41:28;58;46;
70241;PMS5003;57631;52.218;0.108;2022-12-17T07:43:53;69;52;
70241;PMS5003;57631;52.218;0.108;2022-12-17T07:46:19;51;45;
70241;PMS5003;57631;52.218;0.108;2022-12-17T07:48:44;56;50;
70241;PMS5003;57631;52.218;0.108;2022-12-17T07:51:09;64;51;
70241;PMS5003;57631;52.218;0.108;2022-12-17T07:53:35;56;49;
70241;PMS5003;57631;52.218;0.108;2022-12-17T07:56:00;57;45;
70241;PMS5003;57631;52.218;0.108;2022-12-17T07:58:26;63;54;
70241;PMS5003;57631;52.218;0.108;2022-12-17T08:00:51;58;49;
70241;PMS5003;57631;52.218;0.108;2022-12-17T08:03:17;55;48;
70241;PMS5003;57631;52.218;0.108;2022-12-17T08:05:42;53;46;
70241;PMS5003;57631;52.218;0.108;2022-12-17T08:08:08;65;56;
70241;PMS5003;57631;52.218;0.108;2022-12-17T08:10:33;50;39;
70241;PMS5003;57631;52.218;0.108;2022-12-17T08:12:59;51;49;
70241;PMS5003;57631;52.218;0.108;2022-12-17T08:15:23;63;49;
70241;PMS5003;57631;52.218;0.108;2022-12-17T08:17:49;68;53;
70241;PMS5003;57631;52.218;0.108;2022-12-17T08:20:15;68;54;
70241;PMS5003;57631;52.218;0.108;2022-12-17T08:22:39;58;46;
70241;PMS5003;57631;52.218;0.108;2022-12-17T08:25:05;61;50;
70241;PMS5003;57631;52.218;0.108;2022-12-17T08:27:30;58;53;
70241;PMS5003;57631;52.218;0.108;2022-12-17T08:29:56;63;51;
70241;PMS5003;57631;52.218;0.108;2022-12-17T08:32:21;53;45;
70241;PMS5003;57631;52.218;0.108;2022-12-17T08:34:46;53;48;
70241;PMS5003;57631;52.218;0.108;2022-12-17T08:37:12;58;42;
70241;PMS5003;57631;52.218;0.108;2022-12-17T08:39:37;51;42;
70241;PMS5003;57631;52.218;0.108;2022-12-17T08:42:03;48;43;
70241;PMS5003;57631;52.218;0.108;2022-12-17T08:44:28;52;47;
70241;PMS5003;57631;52.218;0.108;2022-12-17T08:46:54;61;50;
70241;PMS5003;57631;52.218;0.108;2022-12-17T08:49:19;49;47;
70241;PMS5003;57631;52.218;0.108;2022-12-17T08:51:45;49;45;
70241;PMS5003;57631;52.218;0.108;2022-12-17T08:54:11;56;45;
70241;PMS5003;57631;52.218;0.108;2022-12-17T08:56:36;60;51;
70241;PMS5003;57631;52.218;0.108;2022-12-17T08:59:02;58;53;
70241;PMS5003;57631;52.218;0.108;2022-12-17T09:01:27;67;53;
70241;PMS5003;57631;52.218;0.108;2022-12-17T09:03:53;66;52;
70241;PMS5003;57631;52.218;0.108;2022-12-17T09:06:18;62;59;
70241;PMS5003;57631;52.218;0.108;2022-12-17T09:08:43;76;61;
70241;PMS5003;57631;52.218;0.108;2022-12-17T09:11:09;69;54;
70241;PMS5003;57631;52.218;0.108;2022-12-17T09:13:35;64;50;
70241;PMS5003;57631;52.218;0.108;2022-12-17T09:16:00;57;46;
70241;PMS5003;57631;52.218;0.108;2022-12-17T09:18:25;52;47;
70241;PMS5003;57631;52.218;0.108;2022-12-17T09:20:51;65;56;
70241;PMS5003;57631;52.218;0.108;2022-12-17T09:23:17;59;49;
70241;PMS5003;57631;52.218;0.108;2022-12-17T09:25:42;60;51;
70241;PMS5003;57631;52.218;0.108;2022-12-17T09:28:08;61;50;
70241;PMS5003;57631;52.218;0.108;2022-12-17T09:30:33;55;49;
70241;PMS5003;57631;52.218;0.108;2022-12-17T09:32:59;60;55;
70241;PMS5003;57631;52.218;0.108;2022-12-17T09:35:24;60;50;
70241;PMS5003;57631;52.218;0.108;2022-12-17T09:37:50;68;52;
70241;PMS5003;57631;52.218;0.108;2022-12-17T09:40:16;65;53;
70241;PMS5003;57631;52.218;0.108;2022-12-17T09:42:41;59;54;
70241;PMS5003;57631;52.218;0.108;2022-12-17T09:45:06;56;52;
70241;PMS5003;57631;52.218;0.108;2022-12-17T09:47:33;51;48;
70241;PMS5003;57631;52.218;0.108;2022-12-17T09:50:07;61;54;
70241;PMS5003;57631;52.218;0.108;2022-12-17T09:52:23;47;46;
70241;PMS5003;57631;52.218;0.108;2022-12-17T09:54:48;50;44;
70241;PMS5003;57631;52.218;0.108;2022-12-17T09:57:14;57;51;
70241;PMS5003;57631;52.218;0.108;2022-12-17T09:59:38;56;46;
70241;PMS5003;57631;52.218;0.108;2022-12-17T10:02:06;57;49;
70241;PMS5003;57631;52.218;0.108;2022-12-17T10:04:31;52;48;
70241;PMS5003;57631;52.218;0.108;2022-12-17T10:06:54;51;43;
70241;PMS5003;57631;52.218;0.108;2022-12-17T10:09:19;48;41;
70241;PMS5003;57631;52.218;0.108;2022-12-17T10:11:44;41;40;
70241;PMS5003;57631;52.218;0.108;2022-12-17T10:14:11;57;47;
70241;PMS5003;57631;52.218;0.108;2022-12-17T10:16:36;42;38;
70241;PMS5003;57631;52.218;0.108;2022-12-17T10:19:01;56;49;
70241;PMS5003;57631;52.218;0.108;2022-12-17T10:21:27;51;41;
70241;PMS5003;57631;52.218;0.108;2022-12-17T10:26:19;53;45;
70241;PMS5003;57631;52.218;0.108;2022-12-17T10:28:43;62;50;
70241;PMS5003;57631;52.218;0.108;2022-12-17T10:31:10;49;44;
70241;PMS5003;57631;52.218;0.108;2022-12-17T10:33:35;44;41;
70241;PMS5003;57631;52.218;0.108;2022-12-17T10:36:01;62;53;
70241;PMS5003;57631;52.218;0.108;2022-12-17T10:38:26;67;53;
70241;PMS5003;57631;52.218;0.108;2022-12-17T10:40:51;57;45;
70241;PMS5003;57631;52.218;0.108;2022-12-17T10:45:56;53;46;
70241;PMS5003;57631;52.218;0.108;2022-12-17T10:50:33;66;51;
70241;PMS5003;57631;52.218;0.108;2022-12-17T10:52:59;65;47;
70241;PMS5003;57631;52.218;0.108;2022-12-17T10:55:24;71;54;
70241;PMS5003;57631;52.218;0.108;2022-12-17T10:57:49;72;60;
70241;PMS5003;57631;52.218;0.108;2022-12-17T11:00:20;66;55;
70241;PMS5003;57631;52.218;0.108;2022-12-17T11:02:44;69;52;
70241;PMS5003;57631;52.218;0.108;2022-12-17T11:05:11;74;65;
70241;PMS5003;57631;52.218;0.108;2022-12-17T11:07:32;66;60;
70241;PMS5003;57631;52.218;0.108;2022-12-17T11:09:56;68;58;
70241;PMS5003;57631;52.218;0.108;2022-12-17T11:12:23;78;63;
70241;PMS5003;57631;52.218;0.108;2022-12-17T11:14:49;63;57;
70241;PMS5003;57631;52.218;0.108;2022-12-17T11:17:13;65;62;
70241;PMS5003;57631;52.218;0.108;2022-12-17T11:19:39;65;61;
70241;PMS5003;57631;52.218;0.108;2022-12-17T11:22:04;66;53;
70241;PMS5003;57631;52.218;0.108;2022-12-17T11:24:30;74;64;
70241;PMS5003;57631;52.218;0.108;2022-12-17T11:26:53;58;50;
70241;PMS5003;57631;52.218;0.108;2022-12-17T11:29:19;64;58;
70241;PMS5003;57631;52.218;0.108;2022-12-17T11:31:47;58;52;
70241;PMS5003;57631;52.218;0.108;2022-12-17T11:34:12;61;55;
70241;PMS5003;57631;52.218;0.108;2022-12-17T11:36:36;57;52;
70241;PMS5003;57631;52.218;0.108;2022-12-17T11:39:02;64;53;
70241;PMS5003;57631;52.218;0.108;2022-12-17T11:41:29;67;52;
70241;PMS5003;57631;52.218;0.108;2022-12-17T11:43:53;61;51;
70241;PMS5003;57631;52.218;0.108;2022-12-17T11:46:20;73;59;
70241;PMS5003;57631;52.218;0.108;2022-12-17T11:48:43;63;54;
70241;PMS5003;57631;52.218;0.108;2022-12-17T11:51:09;55;51;
70241;PMS5003;57631;52.218;0.108;2022-12-17T11:53:40;55;55;
70241;PMS5003;57631;52.218;0.108;2022-12-17T11:56:01;54;47;
70241;PMS5003;57631;52.218;0.108;2022-12-17T11:58:26;52;47;
70241;PMS5003;57631;52.218;0.108;2022-12-17T12:00:53;57;47;
70241;PMS5003;57631;52.218;0.108;2022-12-17T12:03:18;61;55;
70241;PMS5003;57631;52.218;0.108;2022-12-17T12:05:43;46;41;
70241;PMS5003;57631;52.218;0.108;2022-12-17T12:08:08;56;48;
70241;PMS5003;57631;52.218;0.108;2022-12-17T12:10:31;46;42;
70241;PMS5003;57631;52.218;0.108;2022-12-17T12:12:58;47;42;
70241;PMS5003;57631;52.218;0.108;2022-12-17T12:15:23;43;37;
70241;PMS5003;57631;52.218;0.108;2022-12-17T12:17:47;48;40;
70241;PMS5003;57631;52.218;0.108;2022-12-17T12:20:17;42;37;
70241;PMS5003;57631;52.218;0.108;2022-12-17T12:22:38;36;33;
70241;PMS5003;57631;52.218;0.108;2022-12-17T12:25:10;51;45;
70241;PMS5003;57631;52.218;0.108;2022-12-17T12:27:29;50;36;
70241;PMS5003;57631;52.218;0.108;2022-12-17T12:29:54;47;38;
70241;PMS5003;57631;52.218;0.108;2022-12-17T12:32:19;39;34;
70241;PMS5003;57631;52.218;0.108;2022-12-17T12:34:43;36;33;
70241;PMS5003;57631;52.218;0.108;2022-12-17T12:37:11;41;39;
70241;PMS5003;57631;52.218;0.108;2022-12-17T12:39:35;43;38;
70241;PMS5003;57631;52.218;0.108;2022-12-17T12:42:00;34;31;
70241;PMS5003;57631;52.218;0.108;2022-12-17T12:44:31;37;33;
70241;PMS5003;57631;52.218;0.108;2022-12-17T12:46:51;43;34;
70241;PMS5003;57631;52.218;0.108;2022-12-17T12:49:17;35;31;
70241;PMS5003;57631;52.218;0.108;2022-12-17T12:51:41;43;35;
70241;PMS5003;57631;52.218;0.108;2022-12-17T12:56:33;39;39;
70241;PMS5003;57631;52.218;0.108;2022-12-17T12:58:57;40;40;
70241;PMS5003;57631;52.218;0.108;2022-12-17T13:03:49;43;39;
70241;PMS5003;57631;52.218;0.108;2022-12-17T13:08:39;38;31;
70241;PMS5003;57631;52.218;0.108;2022-12-17T13:11:09;45;35;
70241;PMS5003;57631;52.218;0.108;2022-12-17T13:13:32;49;42;
70241;PMS5003;57631;52.218;0.108;2022-12-17T13:15:58;43;35;
70241;PMS5003;57631;52.218;0.108;2022-12-17T13:18:22;47;44;
70241;PMS5003;57631;52.218;0.108;2022-12-17T13:23:14;35;34;
70241;PMS5003;57631;52.218;0.108;2022-12-17T13:25:38;39;34;
70241;PMS5003;57631;52.218;0.108;2022-12-17T13:28:04;48;43;
70241;PMS5003;57631;52.218;0.108;2022-12-17T13:30:30;43;40;
70241;PMS5003;57631;52.218;0.108;2022-12-17T13:32:57;42;39;
70241;PMS5003;57631;52.218;0.108;2022-12-17T13:35:20;45;38;
70241;PMS5003;57631;52.218;0.108;2022-12-17T13:37:48;43;40;
70241;PMS5003;57631;52.218;0.108;2022-12-17T13:40:17;44;41;
70241;PMS5003;57631;52.218;0.108;2022-12-17T13:42:36;47;41;
70241;PMS5003;57631;52.218;0.108;2022-12-17T13:45:02;38;36;
70241;PMS5003;57631;52.218;0.108;2022-12-17T13:47:28;43;38;
70241;PMS5003;57631;52.218;0.108;2022-12-17T13:49:54;45;38;
70241;PMS5003;57631;52.218;0.108;2022-12-17T13:52:19;36;36;
70241;PMS5003;57631;52.218;0.108;2022-12-17T13:54:43;44;38;
70241;PMS5003;57631;52.218;0.108;2022-12-17T13:57:11;54;47;
70241;PMS5003;57631;52.218;0.108;2022-12-17T13:59:34;48;45;
70241;PMS5003;57631;52.218;0.108;2022-12-17T14:01:59;50;40;
70241;PMS5003;57631;52.218;0.108;2022-12-17T14:04:25;42;35;
70241;PMS5003;57631;52.218;0.108;2022-12-17T14:06:50;43;39;
70241;PMS5003;57631;52.218;0.108;2022-12-17T14:09:15;48;46;
70241;PMS5003;57631;52.218;0.108;2022-12-17T14:11:40;47;45;
70241;PMS5003;57631;52.218;0.108;2022-12-17T14:14:07;48;45;
70241;PMS5003;57631;52.218;0.108;2022-12-17T14:16:31;47;44;
70241;PMS5003;57631;52.218;0.108;2022-12-17T14:18:57;49;43;
70241;PMS5003;57631;52.218;0.108;2022-12-17T14:21:22;51;42;
70241;PMS5003;57631;52.218;0.108;2022-12-17T14:23:47;46;43;
70241;PMS5003;57631;52.218;0.108;2022-12-17T14:26:13;45;40;
70241;PMS5003;57631;52.218;0.108;2022-12-17T14:28:43;52;42;
70241;PMS5003;57631;52.218;0.108;2022-12-17T14:31:04;55;48;
70241;PMS5003;57631;52.218;0.108;2022-12-17T14:33:30;54;47;
70241;PMS5003;57631;52.218;0.108;2022-12-17T14:35:57;45;45;
70241;PMS5003;57631;52.218;0.108;2022-12-17T14:38:20;45;44;
70241;PMS5003;57631;52.218;0.108;2022-12-17T14:40:45;54;50;
70241;PMS5003;57631;52.218;0.108;2022-12-17T14:43:11;53;47;
70241;PMS5003;57631;52.218;0.108;2022-12-17T14:45:36;58;50;
70241;PMS5003;57631;52.218;0.108;2022-12-17T14:48:02;58;53;
70241;PMS5003;57631;52.218;0.108;2022-12-17T14:50:29;66;57;
70241;PMS5003;57631;52.218;0.108;2022-12-17T14:52:54;58;53;
70241;PMS5003;57631;52.218;0.108;2022-12-17T14:55:22;61;52;
70241;PMS5003;57631;52.218;0.108;2022-12-17T14:57:45;73;60;
70241;PMS5003;57631;52.218;0.108;2022-12-17T15:00:11;61;55;
70241;PMS5003;57631;52.218;0.108;2022-12-17T15:02:36;62;51;
70241;PMS5003;57631;52.218;0.108;2022-12-17T15:05:01;60;55;
70241;PMS5003;57631;52.218;0.108;2022-12-17T15:07:30;61;58;
70241;PMS5003;57631;52.218;0.108;2022-12-17T15:09:53;65;53;
70241;PMS5003;57631;52.218;0.108;2022-12-17T15:12:18;61;55;
70241;PMS5003;57631;52.218;0.108;2022-12-17T15:14:44;70;60;
70241;PMS5003;57631;52.218;0.108;2022-12-17T15:17:10;65;60;
70241;PMS5003;57631;52.218;0.108;2022-12-17T15:19:35;65;56;
70241;PMS5003;57631;52.218;0.108;2022-12-17T15:22:01;70;61;
70241;PMS5003;57631;52.218;0.108;2022-12-17T15:24:26;73;63;
70241;PMS5003;57631;52.218;0.108;2022-12-17T15:26:52;70;56;
70241;PMS5003;57631;52.218;0.108;2022-12-17T15:29:17;57;49;
70241;PMS5003;57631;52.218;0.108;2022-12-17T15:31:43;56;53;
70241;PMS5003;57631;52.218;0.108;2022-12-17T15:34:08;59;57;
70241;PMS5003;57631;52.218;0.108;2022-12-17T15:36:33;62;55;
70241;PMS5003;57631;52.218;0.108;2022-12-17T15:38:59;61;51;
70241;PMS5003;57631;52.218;0.108;2022-12-17T15:41:25;51;49;
70241;PMS5003;57631;52.218;0.108;2022-12-17T15:43:51;50;47;
70241;PMS5003;57631;52.218;0.108;2022-12-17T15:46:16;71;60;
70241;PMS5003;57631;52.218;0.108;2022-12-17T15:48:41;63;56;
70241;PMS5003;57631;52.218;0.108;2022-12-17T15:51:07;54;48;
70241;PMS5003;57631;52.218;0.108;2022-12-17T15:53:32;58;50;
70241;PMS5003;57631;52.218;0.108;2022-12-17T15:55:58;59;53;
70241;PMS5003;57631;52.218;0.108;2022-12-17T15:58:24;58;49;
70241;PMS5003;57631;52.218;0.108;2022-12-17T16:00:49;54;47;
70241;PMS5003;57631;52.218;0.108;2022-12-17T16:03:14;51;50;
70241;PMS5003;57631;52.218;0.108;2022-12-17T16:05:40;54;46;
70241;PMS5003;57631;52.218;0.108;2022-12-17T16:08:05;59;51;
70241;PMS5003;57631;52.218;0.108;2022-12-17T16:10:30;54;51;
70241;PMS5003;57631;52.218;0.108;2022-12-17T16:12:56;65;56;
70241;PMS5003;57631;52.218;0.108;2022-12-17T16:15:22;54;50;
70241;PMS5003;57631;52.218;0.108;2022-12-17T16:17:47;58;48;
70241;PMS5003;57631;52.218;0.108;2022-12-17T16:20:14;56;53;
70241;PMS5003;57631;52.218;0.108;2022-12-17T16:22:39;54;48;
70241;PMS5003;57631;52.218;0.108;2022-12-17T16:25:04;52;48;